Time;durP1;ratioP1;P1;durP2;ratioP2;P2;SDS_P1;SDS_P2;PMS_P1;PMS_P2;Temp;Humidity;BMP_temperature;BMP_pressure;BME280_temperature;BME280_humidity;BME280_pressure;Samples;Min_cycle;Max_cycle;Signal;HPM_P1;HPM_P2
2022/06/08 00:00:00;;;;;;;2.85;1.13;;;16.70;99.90;;;;;;5028726;28;20049;-64
2022/06/08 00:02:32;;;;;;;2.15;1.23;;;16.80;99.90;;;;;;5028126;28;20077;-66
2022/06/08 00:04:59;;;;;;;4.63;1.60;;;16.80;99.90;;;;;;5031289;28;20047;-66
2022/06/08 00:07:27;;;;;;;3.60;1.30;;;16.70;99.90;;;;;;5035534;28;20072;-66
2022/06/08 00:09:54;;;;;;;3.88;1.20;;;16.70;99.90;;;;;;5036952;28;20041;-66
2022/06/08 00:12:22;;;;;;;2.75;1.00;;;16.70;99.90;;;;;;5038647;28;20056;-66
2022/06/08 00:14:49;;;;;;;3.47;1.15;;;16.70;99.90;;;;;;5042063;28;20186;-66
2022/06/08 00:17:16;;;;;;;3.55;1.38;;;16.70;99.90;;;;;;5040618;28;20456;-65
2022/06/08 00:19:44;;;;;;;3.75;1.40;;;16.70;99.90;;;;;;5038659;28;20128;-66
2022/06/08 00:22:11;;;;;;;2.47;1.55;;;16.70;99.90;;;;;;5032645;28;20125;-66
2022/06/08 00:24:39;;;;;;;4.78;1.25;;;16.70;99.90;;;;;;5037596;28;20120;-66
2022/06/08 00:27:06;;;;;;;2.92;1.40;;;16.60;99.90;;;;;;5041468;28;20469;-64
2022/06/08 00:29:33;;;;;;;2.50;1.52;;;16.60;99.90;;;;;;5044251;28;20045;-66
2022/06/08 00:32:01;;;;;;;2.90;1.40;;;16.60;99.90;;;;;;5022494;28;20381;-66
2022/06/08 00:34:30;;;;;;;2.85;1.48;;;16.60;99.90;;;;;;5022185;28;20508;-66
2022/06/08 00:36:57;;;;;;;4.65;1.50;;;16.50;99.90;;;;;;5027319;28;20041;-66
2022/06/08 00:39:25;;;;;;;3.75;1.40;;;16.40;99.90;;;;;;5027091;28;20042;-66
2022/06/08 00:41:59;;;;;;;5.30;1.52;;;16.40;99.90;;;;;;5027839;28;20053;-66
2022/06/08 00:44:27;;;;;;;2.95;1.40;;;16.40;99.90;;;;;;5026470;28;20045;-66
2022/06/08 00:46:55;;;;;;;4.18;1.33;;;16.40;99.90;;;;;;5037997;28;20124;-66
2022/06/08 00:49:30;;;;;;;3.72;1.42;;;16.30;99.90;;;;;;5022401;28;20055;-66
2022/06/08 00:52:00;;;;;;;5.00;1.42;;;16.30;99.90;;;;;;5041167;28;20045;-66
2022/06/08 00:54:31;;;;;;;2.97;1.58;;;16.30;99.90;;;;;;5027115;28;20067;-66
2022/06/08 00:57:04;;;;;;;2.83;1.45;;;16.20;99.90;;;;;;5025720;28;20080;-66
2022/06/08 00:59:35;;;;;;;2.75;1.50;;;16.20;99.90;;;;;;5032377;28;20115;-66
2022/06/08 01:02:03;;;;;;;3.63;1.67;;;16.10;99.90;;;;;;5030499;28;20052;-66
2022/06/08 01:04:31;;;;;;;3.10;1.70;;;16.10;99.90;;;;;;5022086;28;20034;-66
2022/06/08 01:06:59;;;;;;;2.53;1.50;;;16.00;99.90;;;;;;5025228;28;20069;-66
2022/06/08 01:09:36;;;;;;;3.88;1.50;;;16.00;99.90;;;;;;5010018;28;20146;-66
2022/06/08 01:12:12;;;;;;;5.82;1.60;;;15.90;99.90;;;;;;5023697;28;20519;-66
2022/06/08 01:14:45;;;;;;;3.50;1.63;;;15.90;99.90;;;;;;5025494;28;20045;-66
2022/06/08 01:17:16;;;;;;;2.38;1.50;;;15.90;99.90;;;;;;5026593;28;20148;-66
2022/06/08 01:19:48;;;;;;;4.20;1.42;;;15.80;99.90;;;;;;5033139;28;20041;-66
2022/06/08 01:22:20;;;;;;;3.85;1.98;;;15.80;99.90;;;;;;5037392;28;20480;-66
2022/06/08 01:24:52;;;;;;;3.90;2.22;;;15.70;99.90;;;;;;5040226;28;20045;-66
2022/06/08 01:27:44;;;;;;;10.35;2.22;;;15.70;99.90;;;;;;5015475;28;20037;-66
2022/06/08 01:30:20;;;;;;;3.35;1.80;;;15.60;99.90;;;;;;5024705;28;20042;-66
2022/06/08 01:33:02;;;;;;;5.05;1.88;;;15.60;99.90;;;;;;5028244;28;20041;-66
2022/06/08 01:35:48;;;;;;;;;;;15.60;99.90;;;;;;5012532;28;20056;-66
2022/06/08 01:38:46;;;;;;;3.60;1.75;;;15.60;99.90;;;;;;5027264;28;19929;-66
2022/06/08 01:41:32;;;;;;;3.55;2.00;;;15.50;99.90;;;;;;5016865;28;20054;-66
2022/06/08 01:44:08;;;;;;;3.53;1.80;;;15.50;99.90;;;;;;5038049;28;20423;-66
2022/06/08 01:46:46;;;;;;;3.33;1.77;;;15.50;99.90;;;;;;5037101;28;20041;-66
2022/06/08 01:49:34;;;;;;;3.30;1.80;;;15.40;99.90;;;;;;5045862;28;20044;-66
2022/06/08 01:52:11;;;;;;;3.00;1.63;;;15.40;99.90;;;;;;5041480;28;20128;-66
2022/06/08 01:55:00;;;;;;;3.47;1.70;;;15.40;99.90;;;;;;5014049;28;20041;-66
2022/06/08 01:58:05;;;;;;;2.97;1.90;;;15.30;99.90;;;;;;5025841;28;20049;-66
2022/06/08 02:00:38;;;;;;;5.00;1.80;;;15.30;99.90;;;;;;5039877;28;20045;-66
2022/06/08 02:03:21;;;;;;;3.55;1.77;;;15.30;99.90;;;;;;5006909;28;20125;-66
2022/06/08 02:06:32;;;;;;;4.78;2.00;;;15.30;99.90;;;;;;5028286;28;20480;-65
2022/06/08 02:09:07;;;;;;;4.78;1.90;;;15.30;99.90;;;;;;5008922;28;20037;-65
2022/06/08 02:11:43;;;;;;;5.60;2.17;;;15.20;99.90;;;;;;5005878;28;20080;-65
2022/06/08 02:14:29;;;;;;;7.22;2.33;;;15.20;99.90;;;;;;5004795;28;20041;-66
2022/06/08 02:17:18;;;;;;;5.43;2.58;;;15.20;99.90;;;;;;5018567;28;20102;-66
2022/06/08 02:19:57;;;;;;;4.45;2.10;;;15.20;99.90;;;;;;5027986;28;20155;-66
2022/06/08 02:22:35;;;;;;;4.77;2.10;;;15.10;99.90;;;;;;5010835;28;20439;-66
2022/06/08 02:25:22;;;;;;;5.15;2.00;;;15.10;99.90;;;;;;5006747;28;20053;-65
2022/06/08 02:28:03;;;;;;;;;;;15.10;99.90;;;;;;5011708;28;20496;-65
2022/06/08 02:30:38;;;;;;;4.47;2.33;;;15.10;99.90;;;;;;5013573;28;19921;-66
2022/06/08 02:36:06;;;;;;;4.05;2.25;;;15.00;99.90;;;;;;5018315;28;20072;-66
2022/06/08 02:38:39;;;;;;;4.70;2.50;;;15.00;99.90;;;;;;5008230;28;20095;-65
2022/06/08 02:41:10;;;;;;;4.32;2.10;;;15.00;99.90;;;;;;5016058;28;20052;-66
2022/06/08 02:43:53;;;;;;;3.85;2.13;;;15.00;99.90;;;;;;5041359;28;20053;-65
2022/06/08 02:46:47;;;;;;;6.72;2.42;;;15.00;99.90;;;;;;5037363;28;20117;-66
2022/06/08 02:49:16;;;;;;;3.40;2.20;;;15.00;99.90;;;;;;5044074;28;20040;-65
2022/06/08 02:51:47;;;;;;;3.47;2.03;;;14.90;99.90;;;;;;5034284;28;20485;-66
2022/06/08 02:54:25;;;;;;;5.18;2.42;;;14.90;99.90;;;;;;5027270;28;20037;-66
2022/06/08 02:57:07;;;;;;;6.47;2.45;;;14.90;99.90;;;;;;5035102;28;20107;-66
2022/06/08 03:00:01;;;;;;;5.10;2.58;;;15.00;99.90;;;;;;5031550;28;20037;-65
2022/06/08 03:02:36;;;;;;;4.68;2.00;;;15.00;99.90;;;;;;5020201;28;20053;-66
2022/06/08 03:05:17;;;;;;;5.80;2.50;;;15.10;99.90;;;;;;5036497;28;20083;-65
2022/06/08 03:07:51;;;;;;;4.65;2.10;;;15.10;99.90;;;;;;5022498;28;20405;-65
2022/06/08 03:10:20;;;;;;;5.53;2.60;;;15.20;99.90;;;;;;5024059;28;20504;-65
2022/06/08 03:12:58;;;;;;;4.10;2.47;;;15.20;99.90;;;;;;5041394;28;20064;-65
2022/06/08 03:15:26;;;;;;;6.57;2.22;;;15.20;99.90;;;;;;5036179;28;20041;-65
2022/06/08 03:17:54;;;;;;;4.72;2.38;;;15.20;99.90;;;;;;5033049;28;20152;-65
2022/06/08 03:20:24;;;;;;;5.13;2.55;;;15.20;99.90;;;;;;5033307;28;20103;-66
2022/06/08 03:22:54;;;;;;;5.70;3.22;;;15.20;99.90;;;;;;5025206;28;20076;-66
2022/06/08 03:25:24;;;;;;;8.38;2.97;;;15.20;99.90;;;;;;5040757;28;20520;-66
2022/06/08 03:27:53;;;;;;;6.55;3.08;;;15.20;99.90;;;;;;5034171;28;20520;-66
2022/06/08 03:30:22;;;;;;;4.55;2.42;;;15.30;99.90;;;;;;5027215;28;20033;-66
2022/06/08 03:32:50;;;;;;;5.88;2.95;;;15.30;99.90;;;;;;5025368;28;20534;-66
2022/06/08 03:35:17;;;;;;;5.40;2.78;;;15.40;99.90;;;;;;5025577;28;20061;-66
2022/06/08 03:37:46;;;;;;;3.90;2.22;;;15.30;99.90;;;;;;5026188;28;20095;-65
2022/06/08 03:40:17;;;;;;;4.47;2.60;;;15.40;99.90;;;;;;5025752;28;20075;-65
2022/06/08 03:42:44;;;;;;;4.72;2.70;;;15.40;99.90;;;;;;5026349;28;20770;-66
2022/06/08 03:45:11;;;;;;;4.05;2.45;;;15.40;99.90;;;;;;5031748;28;20065;-66
2022/06/08 03:47:43;;;;;;;5.45;2.40;;;15.50;99.90;;;;;;5023138;28;20047;-67
2022/06/08 03:50:15;;;;;;;5.47;2.83;;;15.40;99.90;;;;;;5036842;28;20502;-67
2022/06/08 03:52:48;;;;;;;5.05;2.80;;;15.50;99.90;;;;;;5033936;28;20041;-66
2022/06/08 03:55:19;;;;;;;4.18;2.65;;;15.60;99.90;;;;;;5028819;28;20125;-66
2022/06/08 03:57:50;;;;;;;5.82;2.55;;;15.60;99.90;;;;;;5029582;28;20053;-66
2022/06/08 04:00:20;;;;;;;5.80;2.50;;;15.60;99.90;;;;;;5034257;28;20138;-66
2022/06/08 04:03:00;;;;;;;6.18;2.40;;;15.80;99.90;;;;;;5032645;28;20045;-66
2022/06/08 04:05:31;;;;;;;5.60;2.20;;;15.80;99.90;;;;;;5032134;28;20420;-66
2022/06/08 04:08:00;;;;;;;3.95;2.45;;;15.90;99.90;;;;;;5030087;28;20052;-66
2022/06/08 04:10:29;;;;;;;6.70;3.15;;;15.90;99.90;;;;;;5036355;28;20041;-66
2022/06/08 04:12:58;;;;;;;4.50;2.25;;;15.90;99.90;;;;;;5039203;28;20045;-66
2022/06/08 04:15:43;;;;;;;4.32;2.50;;;16.00;99.90;;;;;;5030145;28;20575;-66
2022/06/08 04:18:31;;;;;;;;;;;16.10;99.90;;;;;;5026099;28;20048;-66
2022/06/08 04:21:03;;;;;;;6.75;2.45;;;16.20;99.90;;;;;;5032688;28;19928;-66
2022/06/08 04:23:40;;;;;;;6.63;2.88;;;16.30;99.90;;;;;;5032493;28;20046;-66
2022/06/08 04:26:09;;;;;;;4.88;2.40;;;16.40;99.90;;;;;;5034804;28;20520;-66
2022/06/08 04:28:37;;;;;;;6.53;2.28;;;16.40;99.90;;;;;;5035299;28;20641;-66
2022/06/08 04:31:11;;;;;;;6.00;2.92;;;16.50;99.90;;;;;;5026442;28;20505;-66
2022/06/08 04:33:42;;;;;;;7.18;3.05;;;16.60;99.90;;;;;;5030058;28;20497;-66
2022/06/08 04:36:14;;;;;;;3.78;2.25;;;16.60;99.90;;;;;;5027172;28;20049;-65
2022/06/08 04:38:42;;;;;;;7.03;2.67;;;16.70;99.90;;;;;;5025642;28;20057;-66
2022/06/08 04:41:10;;;;;;;4.82;2.40;;;16.80;99.90;;;;;;5030494;28;20040;-66
2022/06/08 04:43:37;;;;;;;5.25;2.50;;;16.80;99.90;;;;;;5027625;28;20056;-66
2022/06/08 04:46:05;;;;;;;4.90;2.75;;;16.90;99.90;;;;;;5010699;28;20073;-66
2022/06/08 04:48:33;;;;;;;4.80;2.60;;;17.00;99.90;;;;;;5026354;28;20072;-66
2022/06/08 04:51:01;;;;;;;5.15;2.55;;;17.10;99.90;;;;;;5017007;28;20366;-66
2022/06/08 04:53:30;;;;;;;4.25;2.38;;;17.00;99.90;;;;;;5023375;28;20111;-66
2022/06/08 04:55:58;;;;;;;5.57;2.33;;;16.90;99.90;;;;;;5014911;28;20037;-66
2022/06/08 04:58:26;;;;;;;5.68;2.58;;;16.90;99.90;;;;;;5024646;28;20041;-66
2022/06/08 05:00:55;;;;;;;4.35;2.47;;;17.10;99.90;;;;;;5026696;28;20049;-66
2022/06/08 05:03:24;;;;;;;5.00;3.00;;;17.10;99.90;;;;;;5025997;28;20030;-66
2022/06/08 05:05:52;;;;;;;5.28;2.75;;;17.10;99.90;;;;;;5030074;28;20349;-67
2022/06/08 05:08:27;;;;;;;4.90;2.40;;;17.10;99.90;;;;;;5026193;28;20384;-66
2022/06/08 05:10:56;;;;;;;4.47;2.30;;;17.20;99.90;;;;;;5026264;28;20058;-66
2022/06/08 05:13:24;;;;;;;6.13;2.30;;;17.30;99.90;;;;;;5023697;28;20101;-66
2022/06/08 05:16:01;;;;;;;4.85;2.20;;;17.30;99.90;;;;;;5026769;28;20412;-66
2022/06/08 05:18:30;;;;;;;4.57;2.50;;;17.40;99.90;;;;;;5028386;28;20424;-66
2022/06/08 05:21:00;;;;;;;11.57;2.45;;;17.60;99.90;;;;;;5022448;28;20046;-66
2022/06/08 05:23:34;;;;;;;4.95;2.20;;;17.70;99.90;;;;;;5028808;28;20487;-66
2022/06/08 05:26:12;;;;;;;3.85;2.13;;;17.60;99.90;;;;;;5026900;28;20506;-66
2022/06/08 05:28:41;;;;;;;4.95;2.42;;;17.60;99.90;;;;;;5026601;28;20138;-66
2022/06/08 05:31:10;;;;;;;4.25;2.25;;;17.70;99.90;;;;;;5026072;28;20052;-66
2022/06/08 05:33:40;;;;;;;4.22;2.10;;;17.80;99.90;;;;;;4997115;28;20315;-65
2022/06/08 05:36:16;;;;;;;6.47;2.10;;;17.90;99.90;;;;;;5031409;28;20095;-66
2022/06/08 05:38:46;;;;;;;4.90;2.30;;;17.90;99.90;;;;;;5027470;28;20492;-65
2022/06/08 05:41:15;;;;;;;5.50;2.20;;;17.70;99.90;;;;;;5035679;28;20037;-65
2022/06/08 05:43:43;;;;;;;4.75;2.13;;;17.80;99.90;;;;;;5028272;28;20588;-66
2022/06/08 05:46:13;;;;;;;5.45;2.20;;;17.80;99.90;;;;;;5028051;28;20125;-66
2022/06/08 05:48:44;;;;;;;6.80;1.90;;;17.80;99.90;;;;;;5023060;28;20049;-66
2022/06/08 05:51:13;;;;;;;6.07;2.70;;;18.00;99.90;;;;;;5028253;28;20180;-66
2022/06/08 05:53:41;;;;;;;5.85;2.58;;;18.20;99.90;;;;;;5027525;28;20517;-66
2022/06/08 05:56:10;;;;;;;4.45;2.20;;;18.20;99.90;;;;;;5015590;28;20527;-65
2022/06/08 05:58:41;;;;;;;5.32;2.10;;;18.30;99.90;;;;;;5027588;28;20045;-65
2022/06/08 06:01:09;;;;;;;3.80;1.75;;;18.20;99.90;;;;;;5042459;28;20045;-66
2022/06/08 06:03:39;;;;;;;6.28;2.10;;;18.20;99.90;;;;;;5026823;28;20045;-66
2022/06/08 06:06:07;;;;;;;4.72;2.00;;;18.30;99.90;;;;;;5036651;28;20049;-66
2022/06/08 06:08:34;;;;;;;11.45;2.20;;;18.30;99.90;;;;;;5031574;28;20056;-66
2022/06/08 06:11:07;;;;;;;6.07;2.40;;;18.20;99.90;;;;;;5021009;28;20041;-66
2022/06/08 06:13:40;;;;;;;6.13;2.40;;;18.30;99.90;;;;;;5029932;28;20120;-66
2022/06/08 06:16:13;;;;;;;7.43;2.20;;;18.30;99.90;;;;;;5029753;28;20073;-66
2022/06/08 06:18:41;;;;;;;5.82;2.58;;;18.40;99.90;;;;;;5029493;28;20128;-65
2022/06/08 06:21:32;;;;;;;7.07;2.80;;;18.40;99.90;;;;;;5030500;28;20053;-66
2022/06/08 06:24:19;;;;;;;4.30;2.38;;;18.60;99.90;;;;;;5032915;28;20120;-66
2022/06/08 06:27:17;;;;;;;4.22;2.05;;;18.70;99.90;;;;;;5029685;28;20052;-66
2022/06/08 06:29:59;;;;;;;5.57;2.10;;;19.00;99.90;;;;;;5036173;28;20087;-66
2022/06/08 06:32:40;;;;;;;5.57;1.95;;;19.10;99.90;;;;;;5029827;28;20120;-66
2022/06/08 06:35:29;;;;;;;5.78;1.75;;;19.30;99.90;;;;;;5034219;28;20107;-65
2022/06/08 06:38:04;;;;;;;6.07;1.73;;;19.40;99.90;;;;;;5035650;28;20129;-66
2022/06/08 06:40:35;;;;;;;4.57;1.73;;;19.30;99.90;;;;;;5029355;28;20048;-66
2022/06/08 06:43:04;;;;;;;7.35;2.03;;;19.40;99.90;;;;;;5037480;28;20048;-66
2022/06/08 06:45:40;;;;;;;4.03;2.15;;;19.50;99.90;;;;;;5032459;28;20044;-66
2022/06/08 06:48:38;;;;;;;3.58;1.70;;;19.80;99.90;;;;;;5045673;28;20110;-66
2022/06/08 06:51:07;;;;;;;4.43;1.80;;;20.00;99.90;;;;;;5028165;28;20050;-66
2022/06/08 06:53:36;;;;;;;5.60;2.15;;;19.90;99.90;;;;;;5035016;28;20124;-66
2022/06/08 06:56:05;;;;;;;4.40;1.88;;;19.80;99.90;;;;;;5012971;28;20052;-66
2022/06/08 06:58:38;;;;;;;6.85;2.17;;;19.60;99.90;;;;;;5028803;28;20116;-66
2022/06/08 07:01:06;;;;;;;9.38;2.38;;;19.40;99.90;;;;;;5027050;28;20473;-65
2022/06/08 07:03:35;;;;;;;3.63;1.60;;;19.50;99.90;;;;;;5022722;28;20053;-65
2022/06/08 07:06:03;;;;;;;3.75;1.80;;;19.60;99.90;;;;;;5022641;28;20105;-65
2022/06/08 07:08:31;;;;;;;3.95;1.90;;;19.40;99.90;;;;;;5027666;28;20128;-65
2022/06/08 07:13:49;;;;;;;6.43;1.77;;;19.40;99.90;;;;;;5032236;28;20044;-65
2022/06/08 07:16:16;;;;;;;7.25;1.52;;;19.50;99.90;;;;;;5030680;28;20042;-65
2022/06/08 07:18:44;;;;;;;6.80;1.80;;;19.50;99.90;;;;;;5027742;28;20477;-66
2022/06/08 07:21:13;;;;;;;3.28;1.60;;;19.50;99.90;;;;;;5040344;28;20049;-66
2022/06/08 07:23:41;;;;;;;4.22;1.77;;;19.60;99.90;;;;;;5029463;28;20103;-66
2022/06/08 07:26:08;;;;;;;5.72;1.95;;;19.60;99.90;;;;;;5035436;28;20472;-65
2022/06/08 07:28:36;;;;;;;3.50;1.60;;;19.70;99.90;;;;;;5039673;28;20140;-65
2022/06/08 07:31:05;;;;;;;10.82;5.03;;;19.90;99.90;;;;;;5029226;28;20050;-66
2022/06/08 07:33:33;;;;;;;4.28;2.15;;;19.90;99.90;;;;;;5023212;28;20041;-65
2022/06/08 07:36:01;;;;;;;3.78;1.60;;;20.20;99.90;;;;;;5028776;28;20068;-65
2022/06/08 07:38:29;;;;;;;6.85;2.20;;;20.50;99.90;;;;;;5035456;28;20415;-65
2022/06/08 07:40:56;;;;;;;3.83;1.50;;;20.80;99.90;;;;;;5031076;28;20076;-66
2022/06/08 07:43:24;;;;;;;8.10;1.88;;;20.80;99.90;;;;;;5023297;28;20103;-65
2022/06/08 07:45:52;;;;;;;4.57;1.88;;;20.70;99.90;;;;;;5026025;28;20050;-67
2022/06/08 07:51:05;;;;;;;6.13;1.50;;;20.40;99.90;;;;;;5031728;28;20061;-66
2022/06/08 07:53:34;;;;;;;6.10;1.73;;;20.30;99.90;;;;;;5031915;28;20495;-67
2022/06/08 07:56:01;;;;;;;4.03;1.45;;;20.30;99.90;;;;;;5037244;28;20492;-65
2022/06/08 07:58:34;;;;;;;3.88;1.50;;;20.30;99.90;;;;;;5031321;28;20180;-66
2022/06/08 08:01:02;;;;;;;8.13;2.42;;;20.30;99.90;;;;;;5032773;28;20056;-65
2022/06/08 08:03:29;;;;;;;5.78;2.15;;;20.60;99.90;;;;;;5026439;28;20515;-65
2022/06/08 08:05:57;;;;;;;5.40;1.90;;;20.80;99.90;;;;;;5029032;28;20493;-65
2022/06/08 08:08:25;;;;;;;7.68;1.70;;;20.90;99.90;;;;;;5026997;28;20041;-64
2022/06/08 08:10:52;;;;;;;4.47;1.63;;;21.10;99.90;;;;;;5031451;28;20458;-65
2022/06/08 08:13:20;;;;;;;4.47;1.73;;;21.20;99.90;;;;;;5032886;28;20123;-65
2022/06/08 08:15:51;;;;;;;4.13;1.63;;;21.00;99.90;;;;;;5027044;28;20038;-66
2022/06/08 08:18:18;;;;;;;5.25;1.77;;;21.00;99.90;;;;;;5023388;28;20072;-66
2022/06/08 08:20:46;;;;;;;3.90;1.55;;;20.90;99.90;;;;;;5028570;28;20153;-65
2022/06/08 08:23:13;;;;;;;7.20;1.88;;;20.70;99.90;;;;;;5036414;28;20178;-66
2022/06/08 08:25:41;;;;;;;7.50;1.77;;;20.80;99.90;;;;;;5031159;28;20044;-65
2022/06/08 08:28:09;;;;;;;5.57;1.60;;;21.00;99.90;;;;;;5029937;28;20056;-65
2022/06/08 08:30:36;;;;;;;4.63;1.38;;;21.20;99.90;;;;;;5031105;28;20453;-65
2022/06/08 08:33:04;;;;;;;5.28;1.50;;;21.30;99.90;;;;;;5028786;28;20045;-65
2022/06/08 08:35:31;;;;;;;4.15;1.45;;;21.30;99.90;;;;;;5033452;28;20037;-66
2022/06/08 08:38:00;;;;;;;4.40;1.50;;;21.50;99.90;;;;;;5037817;28;20464;-66
2022/06/08 08:40:54;;;;;;;5.68;1.50;;;21.50;99.90;;;;;;5046845;28;20068;-65
2022/06/08 08:43:47;;;;;;;4.13;1.27;;;21.70;99.90;;;;;;5048416;28;20049;-65
2022/06/08 08:46:56;;;;;;;3.90;1.38;;;21.90;99.90;;;;;;4999610;28;20405;-68
2022/06/08 08:49:27;;;;;;;6.82;1.60;;;21.70;99.90;;;;;;5041294;28;20310;-67
2022/06/08 08:52:00;;;;;;;4.25;1.20;;;21.70;99.90;;;;;;5053570;28;20078;-66
2022/06/08 08:54:34;;;;;;;4.13;1.40;;;21.80;99.90;;;;;;5026994;28;20112;-66
2022/06/08 08:57:43;;;;;;;3.05;1.40;;;21.90;99.90;;;;;;5036747;28;20097;-65
2022/06/08 09:00:19;;;;;;;4.60;1.40;;;21.70;99.90;;;;;;5058064;28;20072;-66
2022/06/08 09:05:32;;;;;;;4.68;1.58;;;21.40;99.90;;;;;;5049101;28;20455;-65
2022/06/08 09:07:59;;;;;;;5.18;1.30;;;21.30;99.90;;;;;;5050422;28;20099;-67
2022/06/08 09:10:31;;;;;;;4.38;1.60;;;21.40;99.90;;;;;;5040706;28;20041;-65
2022/06/08 09:13:03;;;;;;;4.67;1.80;;;21.50;99.90;;;;;;5045288;28;20110;-67
2022/06/08 09:15:51;;;;;;;5.68;1.40;;;21.60;99.90;;;;;;5046131;28;20468;-67
2022/06/08 09:18:20;;;;;;;5.75;1.42;;;21.50;99.90;;;;;;5056965;28;20169;-66
2022/06/08 09:20:48;;;;;;;3.55;1.20;;;21.40;99.90;;;;;;5050964;28;20057;-65
2022/06/08 09:23:24;;;;;;;6.18;1.38;;;21.30;99.90;;;;;;5050405;28;20059;-66
2022/06/08 09:26:12;;;;;;;3.58;1.42;;;21.30;99.90;;;;;;5027328;28;20056;-65
2022/06/08 09:28:41;;;;;;;3.42;1.40;;;21.30;99.90;;;;;;5038799;28;20064;-65
2022/06/08 09:31:28;;;;;;;6.30;1.50;;;21.30;99.90;;;;;;5027904;28;20353;-65
2022/06/08 09:34:06;;;;;;;10.90;1.50;;;21.40;99.90;;;;;;5027549;28;20512;-66
2022/06/08 09:36:34;;;;;;;4.85;1.60;;;21.80;99.90;;;;;;5028111;28;20539;-65
2022/06/08 09:39:01;;;;;;;3.47;1.45;;;22.00;99.90;;;;;;5024075;28;20042;-65
2022/06/08 09:41:34;;;;;;;4.40;1.30;;;22.20;99.90;;;;;;5036564;28;20048;-65
2022/06/08 09:44:11;;;;;;;3.97;1.35;;;22.40;99.90;;;;;;5041829;28;20095;-66
2022/06/08 09:52:45;;;;;;;4.05;1.27;;;22.70;99.90;;;;;;5049792;28;20152;-65
2022/06/08 09:55:26;;;;;;;3.88;1.20;;;23.00;99.90;;;;;;5036921;28;20072;-66
2022/06/08 09:58:06;;;;;;;3.63;1.20;;;23.00;99.90;;;;;;5019132;28;20052;-66
2022/06/08 10:00:50;;;;;;;2.72;1.17;;;23.40;99.90;;;;;;5042620;28;20526;-66
2022/06/08 10:03:29;;;;;;;2.47;0.98;;;23.80;99.90;;;;;;5041182;28;20512;-66
2022/06/08 10:06:09;;;;;;;6.38;1.70;;;23.90;99.90;;;;;;5035136;28;20396;-66
2022/06/08 10:08:45;;;;;;;3.92;1.20;;;24.00;99.90;;;;;;5030195;28;20527;-66
2022/06/08 10:11:42;;;;;;;4.63;1.48;;;23.90;99.90;;;;;;5021911;28;20068;-66
2022/06/08 10:14:20;;;;;;;4.28;1.20;;;23.60;99.90;;;;;;5031296;28;20103;-66
2022/06/08 10:16:53;;;;;;;4.95;1.30;;;23.90;99.90;;;;;;5023317;28;20041;-66
2022/06/08 10:19:31;;;;;;;4.72;1.30;;;23.90;99.90;;;;;;5029846;28;20045;-66
2022/06/08 10:22:01;;;;;;;4.20;1.48;;;23.60;99.90;;;;;;5033713;28;20052;-66
2022/06/08 10:24:36;;;;;;;4.22;1.33;;;23.40;99.90;;;;;;5038765;28;20040;-66
2022/06/08 10:27:15;;;;;;;2.33;1.00;;;23.60;99.90;;;;;;5043354;28;20061;-66
2022/06/08 10:29:55;;;;;;;3.65;1.00;;;23.40;99.90;;;;;;5036590;28;20046;-66
2022/06/08 10:32:32;;;;;;;3.63;1.10;;;23.30;99.90;;;;;;5032040;28;20603;-66
2022/06/08 10:35:24;;;;;;;6.57;1.58;;;23.50;99.90;;;;;;5028445;28;20037;-66
2022/06/08 10:37:53;;;;;;;2.97;1.20;;;23.40;99.90;;;;;;5020349;28;20056;-66
2022/06/08 10:40:28;;;;;;;3.13;1.10;;;23.30;99.90;;;;;;5041489;28;20044;-66
2022/06/08 10:42:55;;;;;;;3.38;1.05;;;23.20;99.90;;;;;;5022149;28;20037;-66
2022/06/08 10:45:23;;;;;;;5.78;1.20;;;23.10;99.90;;;;;;5039286;28;20124;-65
2022/06/08 10:47:57;;;;;;;7.10;1.50;;;23.30;99.90;;;;;;5036274;28;20072;-65
2022/06/08 10:50:29;;;;;;;3.20;1.10;;;23.40;99.90;;;;;;5039433;28;20455;-66
2022/06/08 10:55:44;;;;;;;7.53;1.80;;;23.90;99.90;;;;;;5041485;28;20127;-66
2022/06/08 10:58:15;;;;;;;4.60;1.60;;;24.10;99.90;;;;;;5032139;28;20045;-66
2022/06/08 11:00:48;;;;;;;3.42;1.10;;;24.40;99.90;;;;;;5045847;28;20601;-66
2022/06/08 11:03:47;;;;;;;5.13;1.60;;;24.90;99.90;;;;;;5030599;28;20037;-66
2022/06/08 11:06:44;;;;;;;2.20;1.00;;;25.10;99.90;;;;;;5034294;28;20601;-66
2022/06/08 11:09:20;;;;;;;4.63;1.20;;;25.10;99.90;;;;;;5028293;28;20488;-66
2022/06/08 11:11:49;;;;;;;3.15;1.00;;;24.80;99.90;;;;;;5029188;28;20132;-66
2022/06/08 11:14:48;;;;;;;4.32;1.10;;;24.50;99.90;;;;;;5038774;28;20045;-66
2022/06/08 11:17:25;;;;;;;4.88;1.50;;;24.30;99.90;;;;;;5033862;28;20120;-66
2022/06/08 11:19:58;;;;;;;4.18;1.63;;;24.70;99.90;;;;;;5045018;28;20416;-66
2022/06/08 11:22:33;;;;;;;2.95;1.20;;;24.30;99.90;;;;;;5039204;28;20064;-66
2022/06/08 11:25:05;;;;;;;3.03;1.30;;;24.60;99.90;;;;;;5038524;28;20080;-66
2022/06/08 11:27:35;;;;;;;4.35;1.30;;;24.80;99.90;;;;;;5043508;28;20064;-67
2022/06/08 11:30:22;;;;;;;3.40;1.23;;;24.90;99.90;;;;;;5035279;28;20507;-67
2022/06/08 11:32:52;;;;;;;2.15;0.93;;;25.00;99.90;;;;;;5030514;28;20599;-66
2022/06/08 11:35:35;;;;;;;2.60;1.00;;;24.80;99.90;;;;;;5032456;28;20524;-66
2022/06/08 11:38:18;;;;;;;2.60;1.30;;;24.50;99.90;;;;;;5041371;28;20044;-65
2022/06/08 11:40:46;;;;;;;3.53;1.20;;;24.60;99.90;;;;;;5032078;28;20103;-65
2022/06/08 11:43:14;;;;;;;1.98;1.00;;;24.70;99.90;;;;;;5042334;28;20492;-66
2022/06/08 11:45:54;;;;;;;2.63;1.13;;;24.70;99.90;;;;;;5043570;28;20049;-65
2022/06/08 11:48:28;;;;;;;4.38;1.20;;;24.70;99.90;;;;;;5047179;28;20099;-65
2022/06/08 11:50:56;;;;;;;3.60;1.23;;;24.90;99.90;;;;;;5041239;28;20140;-65
2022/06/08 11:53:42;;;;;;;3.25;0.90;;;25.50;99.90;;;;;;5037145;28;20540;-67
2022/06/08 11:56:27;;;;;;;3.67;1.10;;;26.30;99.70;;;;;;5018322;28;20099;-65
2022/06/08 11:58:59;;;;;;;3.63;1.20;;;27.10;98.60;;;;;;5044432;28;20055;-64
2022/06/08 12:01:43;;;;;;;5.70;1.00;;;27.00;97.80;;;;;;5035096;28;20507;-66
2022/06/08 12:04:19;;;;;;;4.38;1.15;;;27.00;96.80;;;;;;5041300;28;20567;-67
2022/06/08 12:06:48;;;;;;;2.42;0.93;;;27.00;96.30;;;;;;5036183;28;20049;-67
2022/06/08 12:09:37;;;;;;;2.88;0.98;;;26.50;95.20;;;;;;5035622;28;20037;-66
2022/06/08 12:12:06;;;;;;;3.47;1.02;;;26.20;96.00;;;;;;5015321;28;20033;-66
2022/06/08 12:14:36;;;;;;;2.75;0.90;;;25.90;95.90;;;;;;5037681;28;20080;-65
2022/06/08 12:17:31;;;;;;;1.92;0.77;;;26.30;95.40;;;;;;5020916;28;20041;-66
2022/06/08 12:20:02;;;;;;;3.80;1.10;;;27.00;94.80;;;;;;5021594;28;20058;-65
2022/06/08 12:22:38;;;;;;;2.20;0.80;;;28.10;93.50;;;;;;5032130;28;20045;-65
2022/06/08 12:25:25;;;;;;;2.83;1.00;;;29.10;92.30;;;;;;5022692;28;20061;-65
2022/06/08 12:27:53;;;;;;;4.70;1.05;;;28.30;90.90;;;;;;5034972;28;20068;-66
2022/06/08 12:30:26;;;;;;;5.93;1.30;;;27.20;91.90;;;;;;5029722;28;20530;-65
2022/06/08 12:33:01;;;;;;;5.97;1.13;;;27.40;92.30;;;;;;5028635;28;20377;-65
2022/06/08 12:35:30;;;;;;;1.88;0.90;;;27.50;92.60;;;;;;5030215;28;20041;-65
2022/06/08 12:38:13;;;;;;;2.80;1.00;;;27.40;92.50;;;;;;5027400;28;20064;-65
2022/06/08 12:40:42;;;;;;;2.90;0.88;;;27.80;91.60;;;;;;5026071;28;20119;-66
2022/06/08 12:43:13;;;;;;;2.47;1.00;;;28.50;90.80;;;;;;5029162;28;20235;-65
2022/06/08 12:46:02;;;;;;;5.40;1.03;;;29.60;90.50;;;;;;5039157;28;20071;-65
2022/06/08 12:48:36;;;;;;;2.92;0.90;;;30.70;87.20;;;;;;5031442;28;20049;-65
2022/06/08 12:51:37;;;;;;;2.78;0.90;;;30.80;85.10;;;;;;5020683;28;20441;-65
2022/06/08 12:54:19;;;;;;;3.58;1.13;;;30.60;82.10;;;;;;5042953;28;20053;-65
2022/06/08 12:56:49;;;;;;;3.00;0.80;;;29.90;83.50;;;;;;5023288;28;20041;-66
2022/06/08 12:59:18;;;;;;;4.35;1.00;;;29.60;83.30;;;;;;5030778;28;20420;-66
2022/06/08 13:01:50;;;;;;;2.85;1.27;;;29.10;83.00;;;;;;5014753;28;20523;-65
2022/06/08 13:04:21;;;;;;;4.35;0.90;;;28.70;83.80;;;;;;5027056;28;20050;-66
2022/06/08 13:06:48;;;;;;;2.92;0.80;;;28.50;82.30;;;;;;5033501;28;20212;-66
2022/06/08 13:09:18;;;;;;;3.42;1.02;;;27.40;81.90;;;;;;5032646;28;20052;-66
2022/06/08 13:11:49;;;;;;;2.13;0.80;;;26.90;83.00;;;;;;5027316;28;20049;-66
2022/06/08 13:14:19;;;;;;;2.95;1.20;;;26.60;84.40;;;;;;5029147;28;20441;-66
2022/06/08 13:16:46;;;;;;;3.08;0.85;;;26.30;85.60;;;;;;5019912;28;20109;-67
2022/06/08 13:19:16;;;;;;;3.38;0.90;;;26.20;87.50;;;;;;5027935;28;20493;-66
2022/06/08 13:21:46;;;;;;;1.90;0.80;;;26.20;88.40;;;;;;5035738;28;20064;-67
2022/06/08 13:24:15;;;;;;;2.95;1.10;;;25.80;88.30;;;;;;5043262;28;20037;-65
2022/06/08 13:26:44;;;;;;;2.92;0.88;;;25.80;89.40;;;;;;5029498;28;20132;-66
2022/06/08 13:29:12;;;;;;;2.55;1.00;;;25.70;88.60;;;;;;5029228;28;20424;-65
2022/06/08 13:31:39;;;;;;;1.83;0.90;;;26.20;87.80;;;;;;5032484;28;20072;-66
2022/06/08 13:34:13;;;;;;;4.05;0.80;;;26.50;88.10;;;;;;5027772;28;20396;-67
2022/06/08 13:36:40;;;;;;;4.57;0.90;;;28.00;87.70;;;;;;5042639;28;20048;-65
2022/06/08 13:39:28;;;;;;;4.07;1.00;;;28.30;84.20;;;;;;5027401;28;20052;-65
2022/06/08 13:42:03;;;;;;;3.05;0.90;;;28.50;83.90;;;;;;5026710;28;20057;-65